sensor_id;sensor_type;location;lat;lon;timestamp;P1;durP1;ratioP1;P2;durP2;ratioP2
22070;SDS011;11200;51.488;6.668;2022-07-29T00:01:45;1.10;;;1.00;;
22070;SDS011;11200;51.488;6.668;2022-07-29T00:04:10;2.38;;;1.35;;
22070;SDS011;11200;51.488;6.668;2022-07-29T00:06:36;2.50;;;1.40;;
22070;SDS011;11200;51.488;6.668;2022-07-29T00:09:02;1.25;;;1.10;;
22070;SDS011;11200;51.488;6.668;2022-07-29T00:11:28;1.67;;;1.40;;
22070;SDS011;11200;51.488;6.668;2022-07-29T00:13:53;1.95;;;1.30;;
22070;SDS011;11200;51.488;6.668;2022-07-29T00:16:19;1.95;;;1.30;;
22070;SDS011;11200;51.488;6.668;2022-07-29T00:18:45;1.85;;;1.10;;
22070;SDS011;11200;51.488;6.668;2022-07-29T00:21:10;3.03;;;1.20;;
22070;SDS011;11200;51.488;6.668;2022-07-29T00:23:36;2.22;;;1.40;;
22070;SDS011;11200;51.488;6.668;2022-07-29T00:26:01;1.70;;;1.30;;
22070;SDS011;11200;51.488;6.668;2022-07-29T00:28:27;2.38;;;1.50;;
22070;SDS011;11200;51.488;6.668;2022-07-29T00:30:53;1.83;;;1.35;;
22070;SDS011;11200;51.488;6.668;2022-07-29T00:33:18;2.88;;;1.45;;
22070;SDS011;11200;51.488;6.668;2022-07-29T00:35:44;1.73;;;1.17;;
22070;SDS011;11200;51.488;6.668;2022-07-29T00:38:13;3.55;;;1.40;;
22070;SDS011;11200;51.488;6.668;2022-07-29T00:40:40;1.65;;;1.30;;
22070;SDS011;11200;51.488;6.668;2022-07-29T00:43:07;2.03;;;1.38;;
22070;SDS011;11200;51.488;6.668;2022-07-29T00:45:32;1.60;;;1.10;;
22070;SDS011;11200;51.488;6.668;2022-07-29T00:47:58;1.10;;;1.00;;
22070;SDS011;11200;51.488;6.668;2022-07-29T00:50:24;2.08;;;1.40;;
22070;SDS011;11200;51.488;6.668;2022-07-29T00:52:50;2.25;;;1.20;;
22070;SDS011;11200;51.488;6.668;2022-07-29T00:55:17;1.73;;;1.40;;
22070;SDS011;11200;51.488;6.668;2022-07-29T00:57:44;1.98;;;1.30;;
22070;SDS011;11200;51.488;6.668;2022-07-29T01:00:16;2.08;;;1.20;;
22070;SDS011;11200;51.488;6.668;2022-07-29T01:02:46;1.30;;;1.10;;
22070;SDS011;11200;51.488;6.668;2022-07-29T01:05:13;1.67;;;1.20;;
22070;SDS011;11200;51.488;6.668;2022-07-29T01:07:41;1.45;;;1.10;;
22070;SDS011;11200;51.488;6.668;2022-07-29T01:10:07;2.08;;;1.20;;
22070;SDS011;11200;51.488;6.668;2022-07-29T01:12:36;1.98;;;1.42;;
22070;SDS011;11200;51.488;6.668;2022-07-29T01:15:04;2.00;;;1.02;;
22070;SDS011;11200;51.488;6.668;2022-07-29T01:22:37;1.40;;;1.17;;
22070;SDS011;11200;51.488;6.668;2022-07-29T01:25:32;1.60;;;1.30;;
22070;SDS011;11200;51.488;6.668;2022-07-29T01:31:06;3.10;;;1.30;;
22070;SDS011;11200;51.488;6.668;2022-07-29T01:33:36;1.10;;;1.00;;
22070;SDS011;11200;51.488;6.668;2022-07-29T01:36:16;2.25;;;1.33;;
22070;SDS011;11200;51.488;6.668;2022-07-29T01:38:49;1.92;;;1.42;;
22070;SDS011;11200;51.488;6.668;2022-07-29T01:41:37;2.03;;;1.30;;
22070;SDS011;11200;51.488;6.668;2022-07-29T01:44:17;2.47;;;1.10;;
22070;SDS011;11200;51.488;6.668;2022-07-29T01:46:52;1.35;;;1.17;;
22070;SDS011;11200;51.488;6.668;2022-07-29T01:49:21;2.22;;;1.27;;
22070;SDS011;11200;51.488;6.668;2022-07-29T01:52:00;2.00;;;1.20;;
22070;SDS011;11200;51.488;6.668;2022-07-29T01:54:38;2.55;;;1.30;;
22070;SDS011;11200;51.488;6.668;2022-07-29T01:57:11;1.48;;;1.10;;
22070;SDS011;11200;51.488;6.668;2022-07-29T01:59:42;3.05;;;1.20;;
22070;SDS011;11200;51.488;6.668;2022-07-29T02:02:10;2.53;;;1.20;;
22070;SDS011;11200;51.488;6.668;2022-07-29T02:04:38;1.63;;;1.30;;
22070;SDS011;11200;51.488;6.668;2022-07-29T02:07:06;1.67;;;1.23;;
22070;SDS011;11200;51.488;6.668;2022-07-29T02:09:35;1.73;;;1.23;;
22070;SDS011;11200;51.488;6.668;2022-07-29T02:12:03;1.20;;;1.10;;
22070;SDS011;11200;51.488;6.668;2022-07-29T02:14:32;1.90;;;1.10;;
22070;SDS011;11200;51.488;6.668;2022-07-29T02:17:02;2.83;;;1.25;;
22070;SDS011;11200;51.488;6.668;2022-07-29T02:19:28;1.83;;;1.10;;
22070;SDS011;11200;51.488;6.668;2022-07-29T02:21:56;1.50;;;1.13;;
22070;SDS011;11200;51.488;6.668;2022-07-29T02:24:24;1.45;;;1.00;;
22070;SDS011;11200;51.488;6.668;2022-07-29T02:26:51;2.05;;;1.40;;
22070;SDS011;11200;51.488;6.668;2022-07-29T02:29:19;1.70;;;1.10;;
22070;SDS011;11200;51.488;6.668;2022-07-29T02:31:47;3.78;;;1.30;;
22070;SDS011;11200;51.488;6.668;2022-07-29T02:34:15;1.48;;;1.10;;
22070;SDS011;11200;51.488;6.668;2022-07-29T02:36:43;2.42;;;1.30;;
22070;SDS011;11200;51.488;6.668;2022-07-29T02:39:10;1.98;;;1.20;;
22070;SDS011;11200;51.488;6.668;2022-07-29T02:44:12;2.95;;;1.10;;
22070;SDS011;11200;51.488;6.668;2022-07-29T02:49:32;1.73;;;1.10;;
22070;SDS011;11200;51.488;6.668;2022-07-29T02:52:11;1.98;;;1.10;;
22070;SDS011;11200;51.488;6.668;2022-07-29T02:55:02;2.88;;;1.20;;
22070;SDS011;11200;51.488;6.668;2022-07-29T02:58:32;1.90;;;1.33;;
22070;SDS011;11200;51.488;6.668;2022-07-29T03:01:02;2.25;;;1.23;;
22070;SDS011;11200;51.488;6.668;2022-07-29T03:03:34;3.13;;;1.40;;
22070;SDS011;11200;51.488;6.668;2022-07-29T03:06:02;2.30;;;1.20;;
22070;SDS011;11200;51.488;6.668;2022-07-29T03:08:28;1.65;;;1.25;;
22070;SDS011;11200;51.488;6.668;2022-07-29T03:10:56;1.50;;;1.15;;
22070;SDS011;11200;51.488;6.668;2022-07-29T03:13:22;1.75;;;1.30;;
22070;SDS011;11200;51.488;6.668;2022-07-29T03:15:49;2.03;;;1.10;;
22070;SDS011;11200;51.488;6.668;2022-07-29T03:18:15;3.47;;;1.35;;
22070;SDS011;11200;51.488;6.668;2022-07-29T03:20:41;2.85;;;1.50;;
22070;SDS011;11200;51.488;6.668;2022-07-29T03:23:10;2.90;;;1.27;;
22070;SDS011;11200;51.488;6.668;2022-07-29T03:25:36;3.42;;;1.42;;
22070;SDS011;11200;51.488;6.668;2022-07-29T03:28:01;2.25;;;1.40;;
22070;SDS011;11200;51.488;6.668;2022-07-29T03:30:27;2.67;;;1.20;;
22070;SDS011;11200;51.488;6.668;2022-07-29T03:32:55;1.85;;;1.35;;
22070;SDS011;11200;51.488;6.668;2022-07-29T03:35:21;2.10;;;1.30;;
22070;SDS011;11200;51.488;6.668;2022-07-29T03:37:47;1.30;;;1.00;;
22070;SDS011;11200;51.488;6.668;2022-07-29T03:40:14;2.78;;;1.35;;
22070;SDS011;11200;51.488;6.668;2022-07-29T03:42:46;3.17;;;1.38;;
22070;SDS011;11200;51.488;6.668;2022-07-29T03:45:15;1.92;;;1.30;;
22070;SDS011;11200;51.488;6.668;2022-07-29T03:47:44;1.85;;;1.30;;
22070;SDS011;11200;51.488;6.668;2022-07-29T03:50:13;1.95;;;1.17;;
22070;SDS011;11200;51.488;6.668;2022-07-29T03:52:41;2.35;;;1.30;;
22070;SDS011;11200;51.488;6.668;2022-07-29T03:55:07;2.78;;;1.27;;
22070;SDS011;11200;51.488;6.668;2022-07-29T03:57:34;0.85;;;0.85;;
22070;SDS011;11200;51.488;6.668;2022-07-29T04:00:00;2.42;;;1.23;;
22070;SDS011;11200;51.488;6.668;2022-07-29T04:02:28;3.13;;;1.10;;
22070;SDS011;11200;51.488;6.668;2022-07-29T04:04:53;2.90;;;1.27;;
22070;SDS011;11200;51.488;6.668;2022-07-29T04:07:22;2.40;;;1.17;;
22070;SDS011;11200;51.488;6.668;2022-07-29T04:09:48;2.40;;;1.35;;
22070;SDS011;11200;51.488;6.668;2022-07-29T04:12:13;2.45;;;1.30;;
22070;SDS011;11200;51.488;6.668;2022-07-29T04:14:39;2.28;;;1.30;;
22070;SDS011;11200;51.488;6.668;2022-07-29T04:17:04;2.85;;;1.40;;
22070;SDS011;11200;51.488;6.668;2022-07-29T04:19:30;1.75;;;1.33;;
22070;SDS011;11200;51.488;6.668;2022-07-29T04:21:57;1.15;;;1.05;;
22070;SDS011;11200;51.488;6.668;2022-07-29T04:24:24;2.30;;;1.30;;
22070;SDS011;11200;51.488;6.668;2022-07-29T04:26:50;3.50;;;1.20;;
22070;SDS011;11200;51.488;6.668;2022-07-29T04:29:16;1.63;;;1.30;;
22070;SDS011;11200;51.488;6.668;2022-07-29T04:31:42;2.25;;;1.30;;
22070;SDS011;11200;51.488;6.668;2022-07-29T04:34:08;1.90;;;1.30;;
22070;SDS011;11200;51.488;6.668;2022-07-29T04:36:34;1.10;;;1.00;;
22070;SDS011;11200;51.488;6.668;2022-07-29T04:39:00;2.58;;;1.30;;
22070;SDS011;11200;51.488;6.668;2022-07-29T04:41:26;1.60;;;1.40;;
22070;SDS011;11200;51.488;6.668;2022-07-29T04:43:55;2.05;;;1.17;;
22070;SDS011;11200;51.488;6.668;2022-07-29T04:46:21;1.60;;;1.30;;
22070;SDS011;11200;51.488;6.668;2022-07-29T04:48:47;2.20;;;1.25;;
22070;SDS011;11200;51.488;6.668;2022-07-29T04:51:13;1.42;;;1.15;;
22070;SDS011;11200;51.488;6.668;2022-07-29T04:53:42;1.88;;;1.40;;
22070;SDS011;11200;51.488;6.668;2022-07-29T04:56:08;2.25;;;1.33;;
22070;SDS011;11200;51.488;6.668;2022-07-29T04:58:34;1.40;;;1.20;;
22070;SDS011;11200;51.488;6.668;2022-07-29T05:01:00;3.97;;;1.48;;
22070;SDS011;11200;51.488;6.668;2022-07-29T05:03:26;2.08;;;1.17;;
22070;SDS011;11200;51.488;6.668;2022-07-29T05:05:51;1.85;;;1.25;;
22070;SDS011;11200;51.488;6.668;2022-07-29T05:08:17;2.22;;;1.27;;
22070;SDS011;11200;51.488;6.668;2022-07-29T05:10:43;2.67;;;1.40;;
22070;SDS011;11200;51.488;6.668;2022-07-29T05:13:08;1.73;;;1.40;;
22070;SDS011;11200;51.488;6.668;2022-07-29T05:15:34;1.55;;;1.23;;
22070;SDS011;11200;51.488;6.668;2022-07-29T05:18:02;2.40;;;1.25;;
22070;SDS011;11200;51.488;6.668;2022-07-29T05:20:31;1.35;;;1.25;;
22070;SDS011;11200;51.488;6.668;2022-07-29T05:22:59;1.80;;;1.30;;
22070;SDS011;11200;51.488;6.668;2022-07-29T05:25:26;2.10;;;1.48;;
22070;SDS011;11200;51.488;6.668;2022-07-29T05:27:52;2.30;;;1.23;;
22070;SDS011;11200;51.488;6.668;2022-07-29T05:30:18;3.10;;;1.42;;
22070;SDS011;11200;51.488;6.668;2022-07-29T05:32:44;2.05;;;1.50;;
22070;SDS011;11200;51.488;6.668;2022-07-29T05:35:10;1.33;;;1.20;;
22070;SDS011;11200;51.488;6.668;2022-07-29T05:37:37;3.03;;;1.50;;
22070;SDS011;11200;51.488;6.668;2022-07-29T05:40:03;2.33;;;1.48;;
22070;SDS011;11200;51.488;6.668;2022-07-29T05:42:29;3.20;;;1.50;;
22070;SDS011;11200;51.488;6.668;2022-07-29T05:44:55;1.65;;;1.27;;
22070;SDS011;11200;51.488;6.668;2022-07-29T05:47:21;1.80;;;1.25;;
22070;SDS011;11200;51.488;6.668;2022-07-29T05:49:49;2.30;;;1.40;;
22070;SDS011;11200;51.488;6.668;2022-07-29T05:52:15;2.35;;;1.30;;
22070;SDS011;11200;51.488;6.668;2022-07-29T05:54:42;1.83;;;1.40;;
22070;SDS011;11200;51.488;6.668;2022-07-29T05:57:07;2.95;;;1.40;;
22070;SDS011;11200;51.488;6.668;2022-07-29T05:59:37;2.15;;;1.40;;
22070;SDS011;11200;51.488;6.668;2022-07-29T06:02:03;2.40;;;1.40;;
22070;SDS011;11200;51.488;6.668;2022-07-29T06:04:30;2.75;;;1.40;;
22070;SDS011;11200;51.488;6.668;2022-07-29T06:06:56;2.53;;;1.50;;
22070;SDS011;11200;51.488;6.668;2022-07-29T06:09:22;2.00;;;1.50;;
22070;SDS011;11200;51.488;6.668;2022-07-29T06:11:48;1.60;;;1.50;;
22070;SDS011;11200;51.488;6.668;2022-07-29T06:14:13;2.40;;;1.60;;
22070;SDS011;11200;51.488;6.668;2022-07-29T06:16:39;2.28;;;1.70;;
22070;SDS011;11200;51.488;6.668;2022-07-29T06:19:05;2.67;;;1.75;;
22070;SDS011;11200;51.488;6.668;2022-07-29T06:21:30;3.38;;;1.65;;
22070;SDS011;11200;51.488;6.668;2022-07-29T06:23:56;3.15;;;1.75;;
22070;SDS011;11200;51.488;6.668;2022-07-29T06:26:21;4.35;;;1.60;;
22070;SDS011;11200;51.488;6.668;2022-07-29T06:28:47;1.80;;;1.50;;
22070;SDS011;11200;51.488;6.668;2022-07-29T06:31:13;3.42;;;1.95;;
22070;SDS011;11200;51.488;6.668;2022-07-29T06:33:39;1.75;;;1.50;;
22070;SDS011;11200;51.488;6.668;2022-07-29T06:36:05;2.53;;;1.88;;
22070;SDS011;11200;51.488;6.668;2022-07-29T06:38:30;2.60;;;1.60;;
22070;SDS011;11200;51.488;6.668;2022-07-29T06:40:57;4.18;;;1.80;;
22070;SDS011;11200;51.488;6.668;2022-07-29T06:43:31;3.38;;;1.63;;
22070;SDS011;11200;51.488;6.668;2022-07-29T06:46:03;2.22;;;1.50;;
22070;SDS011;11200;51.488;6.668;2022-07-29T06:48:31;2.88;;;1.60;;
22070;SDS011;11200;51.488;6.668;2022-07-29T06:50:57;3.15;;;1.45;;
22070;SDS011;11200;51.488;6.668;2022-07-29T06:53:23;2.90;;;1.50;;
22070;SDS011;11200;51.488;6.668;2022-07-29T06:55:50;2.28;;;1.63;;
22070;SDS011;11200;51.488;6.668;2022-07-29T06:58:16;1.50;;;1.40;;
22070;SDS011;11200;51.488;6.668;2022-07-29T07:00:44;2.22;;;1.50;;
22070;SDS011;11200;51.488;6.668;2022-07-29T07:03:10;2.85;;;1.55;;
22070;SDS011;11200;51.488;6.668;2022-07-29T07:05:36;1.52;;;1.40;;
22070;SDS011;11200;51.488;6.668;2022-07-29T07:08:02;2.40;;;1.70;;
22070;SDS011;11200;51.488;6.668;2022-07-29T07:10:28;2.15;;;1.60;;
22070;SDS011;11200;51.488;6.668;2022-07-29T07:12:57;2.70;;;1.52;;
22070;SDS011;11200;51.488;6.668;2022-07-29T07:15:22;1.75;;;1.60;;
22070;SDS011;11200;51.488;6.668;2022-07-29T07:17:49;2.63;;;1.60;;
22070;SDS011;11200;51.488;6.668;2022-07-29T07:20:15;4.18;;;1.70;;
22070;SDS011;11200;51.488;6.668;2022-07-29T07:22:41;1.92;;;1.50;;
22070;SDS011;11200;51.488;6.668;2022-07-29T07:25:07;2.65;;;1.42;;
22070;SDS011;11200;51.488;6.668;2022-07-29T07:27:33;2.63;;;1.40;;
22070;SDS011;11200;51.488;6.668;2022-07-29T07:29:59;2.60;;;1.40;;
22070;SDS011;11200;51.488;6.668;2022-07-29T07:32:26;2.20;;;1.40;;
22070;SDS011;11200;51.488;6.668;2022-07-29T07:34:51;1.80;;;1.50;;
22070;SDS011;11200;51.488;6.668;2022-07-29T07:37:17;2.08;;;1.40;;
22070;SDS011;11200;51.488;6.668;2022-07-29T07:39:45;1.98;;;1.52;;
22070;SDS011;11200;51.488;6.668;2022-07-29T07:42:11;1.30;;;1.20;;
22070;SDS011;11200;51.488;6.668;2022-07-29T07:44:38;2.17;;;1.40;;
22070;SDS011;11200;51.488;6.668;2022-07-29T07:47:04;2.33;;;1.40;;
22070;SDS011;11200;51.488;6.668;2022-07-29T07:49:30;1.58;;;1.40;;
22070;SDS011;11200;51.488;6.668;2022-07-29T07:51:56;2.40;;;1.30;;
22070;SDS011;11200;51.488;6.668;2022-07-29T07:54:21;2.60;;;1.70;;
22070;SDS011;11200;51.488;6.668;2022-07-29T07:56:47;2.13;;;1.50;;
22070;SDS011;11200;51.488;6.668;2022-07-29T07:59:16;1.90;;;1.40;;
22070;SDS011;11200;51.488;6.668;2022-07-29T08:01:42;1.67;;;1.50;;
22070;SDS011;11200;51.488;6.668;2022-07-29T08:04:07;1.75;;;1.60;;
22070;SDS011;11200;51.488;6.668;2022-07-29T08:06:34;2.85;;;1.60;;
22070;SDS011;11200;51.488;6.668;2022-07-29T08:09:00;1.70;;;1.60;;
22070;SDS011;11200;51.488;6.668;2022-07-29T08:11:27;3.42;;;1.52;;
22070;SDS011;11200;51.488;6.668;2022-07-29T08:13:53;1.92;;;1.60;;
22070;SDS011;11200;51.488;6.668;2022-07-29T08:16:19;2.38;;;1.70;;
22070;SDS011;11200;51.488;6.668;2022-07-29T08:18:45;2.33;;;1.35;;
22070;SDS011;11200;51.488;6.668;2022-07-29T08:21:11;2.22;;;1.60;;
22070;SDS011;11200;51.488;6.668;2022-07-29T08:23:38;2.75;;;1.80;;
22070;SDS011;11200;51.488;6.668;2022-07-29T08:26:07;2.85;;;2.05;;
22070;SDS011;11200;51.488;6.668;2022-07-29T08:28:38;2.95;;;2.20;;
22070;SDS011;11200;51.488;6.668;2022-07-29T08:31:05;2.17;;;1.73;;
22070;SDS011;11200;51.488;6.668;2022-07-29T08:33:31;2.35;;;2.15;;
22070;SDS011;11200;51.488;6.668;2022-07-29T08:35:57;1.73;;;1.63;;
22070;SDS011;11200;51.488;6.668;2022-07-29T08:38:23;3.70;;;2.15;;
22070;SDS011;11200;51.488;6.668;2022-07-29T08:40:51;3.30;;;1.98;;
22070;SDS011;11200;51.488;6.668;2022-07-29T08:43:17;4.68;;;2.45;;
22070;SDS011;11200;51.488;6.668;2022-07-29T08:45:48;2.00;;;1.80;;
22070;SDS011;11200;51.488;6.668;2022-07-29T08:48:15;2.45;;;1.77;;
22070;SDS011;11200;51.488;6.668;2022-07-29T08:50:43;2.75;;;2.08;;
22070;SDS011;11200;51.488;6.668;2022-07-29T08:53:14;3.83;;;2.00;;
22070;SDS011;11200;51.488;6.668;2022-07-29T08:55:46;2.92;;;1.77;;
22070;SDS011;11200;51.488;6.668;2022-07-29T08:58:13;1.80;;;1.70;;
22070;SDS011;11200;51.488;6.668;2022-07-29T09:00:43;3.10;;;1.90;;
22070;SDS011;11200;51.488;6.668;2022-07-29T09:03:12;1.75;;;1.63;;
22070;SDS011;11200;51.488;6.668;2022-07-29T09:05:42;2.22;;;1.67;;
22070;SDS011;11200;51.488;6.668;2022-07-29T09:08:10;3.00;;;1.90;;
22070;SDS011;11200;51.488;6.668;2022-07-29T09:10:36;3.72;;;2.00;;
22070;SDS011;11200;51.488;6.668;2022-07-29T09:13:02;2.55;;;1.90;;
22070;SDS011;11200;51.488;6.668;2022-07-29T09:15:28;2.00;;;1.70;;
22070;SDS011;11200;51.488;6.668;2022-07-29T09:17:54;3.45;;;2.05;;
22070;SDS011;11200;51.488;6.668;2022-07-29T09:20:22;3.33;;;2.17;;
22070;SDS011;11200;51.488;6.668;2022-07-29T09:22:48;2.83;;;1.80;;
22070;SDS011;11200;51.488;6.668;2022-07-29T09:25:35;1.83;;;1.60;;
22070;SDS011;11200;51.488;6.668;2022-07-29T09:31:11;2.83;;;1.95;;
22070;SDS011;11200;51.488;6.668;2022-07-29T09:33:33;2.35;;;1.80;;
22070;SDS011;11200;51.488;6.668;2022-07-29T09:36:04;2.45;;;1.60;;
22070;SDS011;11200;51.488;6.668;2022-07-29T09:38:31;3.88;;;2.03;;
22070;SDS011;11200;51.488;6.668;2022-07-29T09:40:58;3.35;;;1.77;;
22070;SDS011;11200;51.488;6.668;2022-07-29T09:43:25;2.83;;;2.10;;
22070;SDS011;11200;51.488;6.668;2022-07-29T09:45:51;3.45;;;2.08;;
22070;SDS011;11200;51.488;6.668;2022-07-29T09:48:18;2.15;;;1.80;;
22070;SDS011;11200;51.488;6.668;2022-07-29T09:50:46;1.92;;;1.77;;
22070;SDS011;11200;51.488;6.668;2022-07-29T09:55:59;1.70;;;1.60;;
22070;SDS011;11200;51.488;6.668;2022-07-29T09:58:25;4.07;;;1.85;;
22070;SDS011;11200;51.488;6.668;2022-07-29T10:00:51;2.25;;;1.80;;
22070;SDS011;11200;51.488;6.668;2022-07-29T10:03:19;2.88;;;2.00;;
22070;SDS011;11200;51.488;6.668;2022-07-29T10:05:46;2.95;;;1.88;;
22070;SDS011;11200;51.488;6.668;2022-07-29T10:08:28;2.28;;;1.80;;
22070;SDS011;11200;51.488;6.668;2022-07-29T10:11:03;4.32;;;2.03;;
22070;SDS011;11200;51.488;6.668;2022-07-29T10:13:35;3.20;;;2.35;;
22070;SDS011;11200;51.488;6.668;2022-07-29T10:16:01;2.20;;;2.00;;
22070;SDS011;11200;51.488;6.668;2022-07-29T10:18:27;2.38;;;1.85;;
22070;SDS011;11200;51.488;6.668;2022-07-29T10:20:54;2.30;;;1.73;;
22070;SDS011;11200;51.488;6.668;2022-07-29T10:23:20;3.33;;;1.92;;
22070;SDS011;11200;51.488;6.668;2022-07-29T10:25:46;3.45;;;1.90;;
22070;SDS011;11200;51.488;6.668;2022-07-29T10:28:12;2.72;;;1.80;;
22070;SDS011;11200;51.488;6.668;2022-07-29T10:30:38;2.60;;;1.95;;
22070;SDS011;11200;51.488;6.668;2022-07-29T10:35:54;2.47;;;1.88;;
22070;SDS011;11200;51.488;6.668;2022-07-29T10:38:42;2.42;;;1.92;;
22070;SDS011;11200;51.488;6.668;2022-07-29T10:46:36;1.65;;;1.55;;
22070;SDS011;11200;51.488;6.668;2022-07-29T10:54:15;2.67;;;1.98;;
22070;SDS011;11200;51.488;6.668;2022-07-29T10:59:44;2.90;;;2.10;;
22070;SDS011;11200;51.488;6.668;2022-07-29T11:07:22;4.03;;;2.03;;
22070;SDS011;11200;51.488;6.668;2022-07-29T11:15:04;2.72;;;2.30;;
22070;SDS011;11200;51.488;6.668;2022-07-29T11:23:21;2.35;;;2.00;;
22070;SDS011;11200;51.488;6.668;2022-07-29T11:34:16;2.45;;;1.92;;
22070;SDS011;11200;51.488;6.668;2022-07-29T11:39:40;2.47;;;2.17;;
22070;SDS011;11200;51.488;6.668;2022-07-29T11:47:21;3.20;;;2.00;;
22070;SDS011;11200;51.488;6.668;2022-07-29T11:49:48;3.60;;;1.80;;
22070;SDS011;11200;51.488;6.668;2022-07-29T11:52:15;2.50;;;1.80;;
22070;SDS011;11200;51.488;6.668;2022-07-29T11:54:42;2.20;;;1.92;;
22070;SDS011;11200;51.488;6.668;2022-07-29T11:57:08;2.58;;;1.90;;
22070;SDS011;11200;51.488;6.668;2022-07-29T11:59:41;4.10;;;1.70;;
22070;SDS011;11200;51.488;6.668;2022-07-29T12:02:08;2.63;;;1.90;;
22070;SDS011;11200;51.488;6.668;2022-07-29T12:04:47;2.08;;;1.85;;
22070;SDS011;11200;51.488;6.668;2022-07-29T12:07:13;2.50;;;2.13;;
22070;SDS011;11200;51.488;6.668;2022-07-29T12:09:39;2.63;;;1.80;;
22070;SDS011;11200;51.488;6.668;2022-07-29T12:12:05;2.45;;;1.90;;
22070;SDS011;11200;51.488;6.668;2022-07-29T12:14:31;2.83;;;1.90;;
22070;SDS011;11200;51.488;6.668;2022-07-29T12:16:58;3.42;;;1.80;;
22070;SDS011;11200;51.488;6.668;2022-07-29T12:19:25;1.98;;;1.75;;
22070;SDS011;11200;51.488;6.668;2022-07-29T12:21:52;2.78;;;1.60;;
22070;SDS011;11200;51.488;6.668;2022-07-29T12:24:19;3.65;;;1.90;;
22070;SDS011;11200;51.488;6.668;2022-07-29T12:27:04;2.20;;;1.50;;
22070;SDS011;11200;51.488;6.668;2022-07-29T12:29:29;2.03;;;1.60;;
22070;SDS011;11200;51.488;6.668;2022-07-29T12:31:55;1.67;;;1.48;;
22070;SDS011;11200;51.488;6.668;2022-07-29T12:34:23;3.33;;;1.70;;
22070;SDS011;11200;51.488;6.668;2022-07-29T12:36:51;2.33;;;1.73;;
22070;SDS011;11200;51.488;6.668;2022-07-29T12:39:17;2.30;;;1.58;;
22070;SDS011;11200;51.488;6.668;2022-07-29T12:41:43;3.03;;;1.80;;
22070;SDS011;11200;51.488;6.668;2022-07-29T12:44:09;2.40;;;1.67;;
22070;SDS011;11200;51.488;6.668;2022-07-29T12:46:35;2.00;;;1.73;;
22070;SDS011;11200;51.488;6.668;2022-07-29T12:49:01;2.72;;;2.00;;
22070;SDS011;11200;51.488;6.668;2022-07-29T12:51:32;3.67;;;1.88;;
22070;SDS011;11200;51.488;6.668;2022-07-29T12:54:01;3.55;;;1.90;;
22070;SDS011;11200;51.488;6.668;2022-07-29T12:56:35;1.77;;;1.55;;
22070;SDS011;11200;51.488;6.668;2022-07-29T12:59:11;2.72;;;1.83;;
22070;SDS011;11200;51.488;6.668;2022-07-29T13:01:42;1.83;;;1.70;;
22070;SDS011;11200;51.488;6.668;2022-07-29T13:04:09;1.83;;;1.50;;
22070;SDS011;11200;51.488;6.668;2022-07-29T13:11:42;1.73;;;1.45;;
22070;SDS011;11200;51.488;6.668;2022-07-29T13:14:09;3.25;;;1.92;;
22070;SDS011;11200;51.488;6.668;2022-07-29T13:22:05;2.10;;;1.70;;
22070;SDS011;11200;51.488;6.668;2022-07-29T13:24:31;2.25;;;1.75;;
22070;SDS011;11200;51.488;6.668;2022-07-29T13:26:57;3.50;;;2.05;;
22070;SDS011;11200;51.488;6.668;2022-07-29T13:29:23;2.63;;;1.80;;
22070;SDS011;11200;51.488;6.668;2022-07-29T13:31:49;2.45;;;1.80;;
22070;SDS011;11200;51.488;6.668;2022-07-29T13:34:15;3.13;;;1.90;;
22070;SDS011;11200;51.488;6.668;2022-07-29T13:36:41;3.33;;;1.92;;
22070;SDS011;11200;51.488;6.668;2022-07-29T13:39:06;2.30;;;1.75;;
22070;SDS011;11200;51.488;6.668;2022-07-29T13:41:32;3.47;;;2.10;;
22070;SDS011;11200;51.488;6.668;2022-07-29T13:43:57;3.33;;;1.98;;
22070;SDS011;11200;51.488;6.668;2022-07-29T13:46:23;1.92;;;1.73;;
22070;SDS011;11200;51.488;6.668;2022-07-29T13:48:49;2.35;;;1.70;;
22070;SDS011;11200;51.488;6.668;2022-07-29T13:51:15;1.77;;;1.67;;
22070;SDS011;11200;51.488;6.668;2022-07-29T13:53:41;1.98;;;1.67;;
22070;SDS011;11200;51.488;6.668;2022-07-29T13:56:06;3.05;;;1.75;;
22070;SDS011;11200;51.488;6.668;2022-07-29T13:58:32;1.67;;;1.58;;
22070;SDS011;11200;51.488;6.668;2022-07-29T14:00:58;2.17;;;1.88;;
22070;SDS011;11200;51.488;6.668;2022-07-29T14:03:24;2.38;;;1.75;;
22070;SDS011;11200;51.488;6.668;2022-07-29T14:05:50;2.80;;;1.95;;
22070;SDS011;11200;51.488;6.668;2022-07-29T14:08:16;3.05;;;1.90;;
22070;SDS011;11200;51.488;6.668;2022-07-29T14:10:41;2.47;;;1.80;;
22070;SDS011;11200;51.488;6.668;2022-07-29T14:13:07;2.70;;;1.85;;
22070;SDS011;11200;51.488;6.668;2022-07-29T14:15:33;2.53;;;1.70;;
22070;SDS011;11200;51.488;6.668;2022-07-29T14:17:58;3.63;;;1.70;;
22070;SDS011;11200;51.488;6.668;2022-07-29T14:20:24;2.88;;;1.58;;
22070;SDS011;11200;51.488;6.668;2022-07-29T14:22:50;1.80;;;1.60;;
22070;SDS011;11200;51.488;6.668;2022-07-29T14:25:16;3.13;;;1.63;;
22070;SDS011;11200;51.488;6.668;2022-07-29T14:27:42;2.03;;;1.40;;
22070;SDS011;11200;51.488;6.668;2022-07-29T14:30:08;2.70;;;1.45;;
22070;SDS011;11200;51.488;6.668;2022-07-29T14:32:34;2.58;;;1.70;;
22070;SDS011;11200;51.488;6.668;2022-07-29T14:35:00;2.83;;;1.45;;
22070;SDS011;11200;51.488;6.668;2022-07-29T14:37:26;3.42;;;1.88;;
22070;SDS011;11200;51.488;6.668;2022-07-29T14:39:51;2.90;;;1.88;;
22070;SDS011;11200;51.488;6.668;2022-07-29T14:42:17;4.30;;;2.05;;
22070;SDS011;11200;51.488;6.668;2022-07-29T14:44:42;2.55;;;1.70;;
22070;SDS011;11200;51.488;6.668;2022-07-29T14:47:08;3.15;;;1.90;;
22070;SDS011;11200;51.488;6.668;2022-07-29T14:49:34;4.28;;;1.80;;
22070;SDS011;11200;51.488;6.668;2022-07-29T14:52:00;2.72;;;1.80;;
22070;SDS011;11200;51.488;6.668;2022-07-29T14:54:26;3.35;;;2.00;;
22070;SDS011;11200;51.488;6.668;2022-07-29T14:56:51;2.95;;;1.90;;
22070;SDS011;11200;51.488;6.668;2022-07-29T14:59:20;2.20;;;1.75;;
22070;SDS011;11200;51.488;6.668;2022-07-29T15:01:45;2.47;;;1.80;;
22070;SDS011;11200;51.488;6.668;2022-07-29T15:04:11;1.80;;;1.60;;
22070;SDS011;11200;51.488;6.668;2022-07-29T15:06:36;2.40;;;1.60;;
22070;SDS011;11200;51.488;6.668;2022-07-29T15:09:02;2.35;;;1.67;;
22070;SDS011;11200;51.488;6.668;2022-07-29T15:11:28;1.95;;;1.63;;
22070;SDS011;11200;51.488;6.668;2022-07-29T15:13:54;2.65;;;1.90;;
22070;SDS011;11200;51.488;6.668;2022-07-29T15:16:19;2.38;;;1.60;;
22070;SDS011;11200;51.488;6.668;2022-07-29T15:18:45;2.72;;;1.50;;
22070;SDS011;11200;51.488;6.668;2022-07-29T15:21:10;3.35;;;1.75;;
22070;SDS011;11200;51.488;6.668;2022-07-29T15:23:36;2.47;;;1.80;;
22070;SDS011;11200;51.488;6.668;2022-07-29T15:26:02;2.42;;;1.80;;
22070;SDS011;11200;51.488;6.668;2022-07-29T15:28:29;3.38;;;2.10;;
22070;SDS011;11200;51.488;6.668;2022-07-29T15:30:54;2.70;;;2.00;;
22070;SDS011;11200;51.488;6.668;2022-07-29T15:33:20;3.60;;;1.70;;
22070;SDS011;11200;51.488;6.668;2022-07-29T15:35:46;3.30;;;2.10;;
22070;SDS011;11200;51.488;6.668;2022-07-29T15:38:11;2.35;;;2.00;;
22070;SDS011;11200;51.488;6.668;2022-07-29T15:40:37;2.80;;;1.80;;
22070;SDS011;11200;51.488;6.668;2022-07-29T15:43:06;2.35;;;1.92;;
22070;SDS011;11200;51.488;6.668;2022-07-29T15:45:41;2.78;;;1.95;;
22070;SDS011;11200;51.488;6.668;2022-07-29T15:48:30;2.53;;;2.30;;
22070;SDS011;11200;51.488;6.668;2022-07-29T15:50:56;2.92;;;2.10;;
22070;SDS011;11200;51.488;6.668;2022-07-29T15:53:23;2.65;;;1.80;;
22070;SDS011;11200;51.488;6.668;2022-07-29T15:55:49;2.75;;;2.10;;
22070;SDS011;11200;51.488;6.668;2022-07-29T15:58:15;3.30;;;2.05;;
22070;SDS011;11200;51.488;6.668;2022-07-29T16:00:41;2.20;;;2.00;;
22070;SDS011;11200;51.488;6.668;2022-07-29T16:03:07;2.63;;;1.70;;
22070;SDS011;11200;51.488;6.668;2022-07-29T16:05:32;2.20;;;1.75;;
22070;SDS011;11200;51.488;6.668;2022-07-29T16:07:58;2.17;;;1.80;;
22070;SDS011;11200;51.488;6.668;2022-07-29T16:13:39;2.35;;;1.70;;